Time;durP1;ratioP1;P1;durP2;ratioP2;P2;SDS_P1;SDS_P2;PMS_P1;PMS_P2;Temp;Humidity;BMP_temperature;BMP_pressure;BME280_temperature;BME280_humidity;BME280_pressure;Samples;Min_cycle;Max_cycle;Signal;HPM_P1;HPM_P2
2023/06/15 00:04:44;;;;;;;9.20;8.10;;;;;;;12.52;97.85;99534.69;436465;1250;139169;-71
2023/06/15 00:14:47;;;;;;;10.70;6.80;;;;;;;12.49;97.38;99526.30;436348;1254;138900;-71
2023/06/15 00:24:50;;;;;;;7.90;7.20;;;;;;;12.39;96.48;99528.96;436256;1251;139686;-71
2023/06/15 00:34:53;;;;;;;8.90;8.10;;;;;;;12.33;96.78;99524.09;436275;1251;138691;-71
2023/06/15 00:44:57;;;;;;;9.60;8.70;;;;;;;12.32;97.04;99514.70;436491;1250;139198;-71
2023/06/15 00:55:00;;;;;;;9.30;8.20;;;;;;;12.26;96.96;99513.17;436865;1251;139134;-70
2023/06/15 01:05:03;;;;;;;8.50;7.70;;;;;;;12.17;97.26;99513.33;437100;1254;138904;-72
2023/06/15 01:15:09;;;;;;;9.50;8.60;;;;;;;12.08;97.56;99507.46;436708;1254;140081;-70
2023/06/15 01:25:33;;;;;;;10.10;9.10;;;;;;;12.03;97.82;99502.90;436997;1251;139396;-72
2023/06/15 01:35:36;;;;;;;10.10;9.10;;;;;;;11.96;98.00;99498.42;436538;1251;139421;-70
2023/06/15 01:45:41;;;;;;;8.50;7.70;;;;;;;11.89;98.09;99502.26;436203;1251;139181;-71
2023/06/15 01:55:44;;;;;;;11.50;8.90;;;;;;;11.79;98.09;99506.51;436622;1251;139217;-70
2023/06/15 02:05:47;;;;;;;11.40;10.40;;;;;;;11.74;98.34;99503.11;436510;1250;139754;-71
2023/06/15 02:15:50;;;;;;;10.60;9.60;;;;;;;11.66;98.40;99495.76;436625;1251;140111;-72
2023/06/15 02:25:54;;;;;;;12.00;10.30;;;;;;;11.55;98.44;99495.14;436939;1250;140274;-71
2023/06/15 02:35:57;;;;;;;11.80;10.70;;;;;;;11.47;98.59;99493.43;436771;1253;139458;-70
2023/06/15 02:46:00;;;;;;;9.90;9.00;;;;;;;11.38;98.59;99492.61;437329;1250;140656;-71
2023/06/15 02:56:04;;;;;;;12.60;11.30;;;;;;;11.30;98.55;99492.84;436937;1254;139459;-70
2023/06/15 03:06:10;;;;;;;14.40;12.80;;;;;;;11.24;98.75;99495.86;436492;1251;141270;-71
2023/06/15 03:16:15;;;;;;;14.40;13.20;;;;;;;11.27;98.96;99506.54;436637;1254;140793;-70
2023/06/15 03:26:18;;;;;;;15.80;14.20;;;;;;;11.28;98.98;99506.98;436675;1251;139996;-70
2023/06/15 03:36:24;;;;;;;18.40;13.30;;;;;;;11.39;99.30;99515.68;436848;1254;141460;-70
2023/06/15 03:46:27;;;;;;;15.70;13.80;;;;;;;11.56;99.48;99518.23;437073;1250;140022;-70
2023/06/15 03:56:30;;;;;;;16.00;14.30;;;;;;;11.67;99.37;99515.88;436787;1254;139676;-70
2023/06/15 04:06:35;;;;;;;15.30;13.90;;;;;;;11.80;99.53;99520.77;436350;1254;140161;-70
2023/06/15 04:16:38;;;;;;;17.50;15.70;;;;;;;12.13;99.51;99516.39;436397;1251;139230;-71
2023/06/15 04:26:42;;;;;;;17.00;15.30;;;;;;;12.66;99.28;99518.04;436345;1254;139646;-70
2023/06/15 04:36:48;;;;;;;16.70;14.30;;;;;;;13.78;97.86;99512.35;436354;1254;141228;-69
2023/06/15 04:46:51;;;;;;;15.10;13.40;;;;;;;15.43;95.18;99518.02;436336;1251;139652;-70
2023/06/15 04:56:57;;;;;;;14.80;13.00;;;;;;;15.95;90.31;99517.19;436406;1250;139604;-72
2023/06/15 05:07:00;;;;;;;16.30;14.70;;;;;;;15.64;89.42;99524.04;436597;1254;140687;-70
2023/06/15 05:17:04;;;;;;;16.70;14.70;;;;;;;20.06;87.42;99524.29;450405;1253;139530;-70
2023/06/15 05:27:08;;;;;;;17.20;14.30;;;;;;;20.76;78.63;99531.30;436987;1250;139179;-70
2023/06/15 05:37:12;;;;;;;14.60;13.20;;;;;;;20.40;78.18;99533.02;436717;1254;139606;-70
2023/06/15 05:47:15;;;;;;;13.00;11.70;;;;;;;27.11;73.98;99527.22;436606;1251;140060;-71
2023/06/15 05:57:18;;;;;;;10.80;9.90;;;;;;;29.96;63.21;99534.73;436360;1254;139706;-70
2023/06/15 06:07:21;;;;;;;11.70;10.70;;;;;;;31.57;57.35;99538.30;436439;1250;138877;-71
2023/06/15 06:17:25;;;;;;;12.00;11.10;;;;;;;29.72;54.34;99546.48;436313;1255;139251;-71
2023/06/15 06:27:48;;;;;;;11.90;10.80;;;;;;;30.94;48.78;99546.09;436242;1251;138485;-71
2023/06/15 06:37:51;;;;;;;11.80;10.60;;;;;;;32.00;45.29;99547.95;436702;1251;139330;-71
2023/06/15 06:47:54;;;;;;;10.90;9.70;;;;;;;34.63;40.67;99547.83;436314;1254;138885;-68
2023/06/15 06:58:00;;;;;;;11.90;10.80;;;;;;;36.52;37.83;99547.22;436154;1251;138457;-70
2023/06/15 07:08:04;;;;;;;11.00;10.00;;;;;;;32.40;37.24;99540.88;437038;1256;139269;-72
2023/06/15 07:18:07;;;;;;;16.50;14.80;;;;;;;29.48;39.10;99538.88;437130;1251;139433;-71
2023/06/15 07:28:10;;;;;;;11.00;10.20;;;;;;;29.21;40.67;99539.42;436709;1253;138527;-71
2023/06/15 07:38:14;;;;;;;15.90;13.00;;;;;;;35.77;35.63;99536.95;435981;1254;138696;-71
2023/06/15 07:48:17;;;;;;;12.20;9.30;;;;;;;37.96;31.43;99533.17;436445;1251;140650;-71
2023/06/15 07:58:20;;;;;;;7.80;7.00;;;;;;;34.66;31.09;99529.61;436042;1253;138833;-71
2023/06/15 08:08:23;;;;;;;8.30;6.60;;;;;;;31.03;33.35;99525.64;436201;1250;139836;-69
2023/06/15 08:18:26;;;;;;;7.60;6.80;;;;;;;29.70;35.22;99531.81;436155;1254;138810;-67
2023/06/15 08:28:29;;;;;;;6.40;5.90;;;;;;;28.47;36.55;99528.43;436241;1254;139160;-68
2023/06/15 08:38:40;;;;;;;8.50;6.90;;;;;;;27.83;38.46;99525.48;436074;1253;138124;-69
2023/06/15 08:48:45;;;;;;;6.30;4.60;;;;;;;28.16;37.82;99525.27;436070;1254;139369;-67
2023/06/15 08:58:49;;;;;;;9.00;5.10;;;;;;;28.29;36.87;99519.91;436546;1251;138666;-70
2023/06/15 09:08:52;;;;;;;6.80;5.50;;;;;;;26.46;37.61;99521.05;435936;1253;138917;-70
2023/06/15 09:18:56;;;;;;;6.10;5.00;;;;;;;24.37;39.54;99527.30;436709;1254;138347;-69
2023/06/15 09:29:02;;;;;;;8.10;6.20;;;;;;;23.42;41.48;99528.43;436688;1251;138090;-69
2023/06/15 09:39:09;;;;;;;5.20;4.10;;;;;;;23.85;42.20;99527.80;436649;1253;140261;-68
2023/06/15 09:49:21;;;;;;;5.80;4.60;;;;;;;24.82;41.16;99519.02;436704;1253;139711;-69
2023/06/15 09:59:24;;;;;;;5.80;5.20;;;;;;;23.86;41.74;99511.90;436603;1252;138513;-70
2023/06/15 10:09:31;;;;;;;6.60;4.50;;;;;;;22.69;43.39;99514.27;436328;1253;139164;-69
2023/06/15 10:19:40;;;;;;;6.70;4.70;;;;;;;22.71;44.20;99519.89;436387;1256;138707;-70
2023/06/15 10:29:57;;;;;;;12.40;4.40;;;;;;;22.77;44.39;99517.27;436578;1254;138368;-69
2023/06/15 10:40:11;;;;;;;6.60;4.10;;;;;;;23.02;44.51;99517.39;436710;1254;138386;-70
2023/06/15 10:50:16;;;;;;;6.10;4.10;;;;;;;22.99;45.14;99518.66;436002;1253;138634;-70
2023/06/15 11:00:25;;;;;;;4.30;4.00;;;;;;;22.72;45.86;99520.20;435869;1256;138128;-70
2023/06/15 11:10:31;;;;;;;5.60;3.80;;;;;;;22.56;46.31;99525.60;436570;1251;138695;-69
2023/06/15 11:20:59;;;;;;;3.50;3.20;;;;;;;22.45;45.62;99522.91;436791;1255;138599;-69
2023/06/15 11:31:03;;;;;;;5.30;3.90;;;;;;;22.39;45.32;99522.35;436524;1255;139763;-70
2023/06/15 11:41:07;;;;;;;7.10;4.90;;;;;;;21.94;46.20;99521.19;436953;1254;138098;-69
2023/06/15 11:51:12;;;;;;;11.30;5.50;;;;;;;21.42;48.11;99531.15;436619;1255;138917;-68
2023/06/15 12:01:16;;;;;;;7.10;5.30;;;;;;;21.14;49.46;99523.17;436308;1256;139102;-68
2023/06/15 12:11:22;;;;;;;8.00;6.30;;;;;;;21.39;49.69;99508.70;436567;1257;138028;-70
2023/06/15 12:21:27;;;;;;;10.90;6.30;;;;;;;21.87;49.30;99500.90;436726;1256;137945;-69
2023/06/15 12:31:34;;;;;;;8.60;5.90;;;;;;;22.37;48.85;99494.61;436290;1254;139564;-69
2023/06/15 12:41:39;;;;;;;6.10;5.00;;;;;;;22.67;48.21;99488.25;437042;1251;138584;-69
2023/06/15 12:51:46;;;;;;;6.50;4.90;;;;;;;22.53;47.93;99487.25;436438;1254;139105;-69
2023/06/15 13:01:49;;;;;;;5.10;4.70;;;;;;;22.45;47.70;99483.16;436416;1254;139407;-68
2023/06/15 13:11:52;;;;;;;7.20;5.20;;;;;;;22.84;47.68;99470.11;436350;1254;139451;-68
2023/06/15 13:21:55;;;;;;;5.00;4.50;;;;;;;23.37;46.75;99456.23;435810;1254;138232;-68
2023/06/15 13:32:01;;;;;;;8.30;4.40;;;;;;;23.42;45.51;99447.05;435971;1251;138720;-69
2023/06/15 13:42:07;;;;;;;6.90;4.10;;;;;;;22.60;45.64;99437.15;436039;1251;138134;-67
2023/06/15 13:52:10;;;;;;;8.10;5.30;;;;;;;22.12;46.07;99417.33;436598;1254;138254;-68
2023/06/15 14:02:13;;;;;;;5.10;4.60;;;;;;;21.37;46.85;99411.36;436287;1251;138676;-68
2023/06/15 14:12:16;;;;;;;5.50;3.70;;;;;;;20.82;47.72;99404.36;435998;1254;138750;-67
2023/06/15 14:22:19;;;;;;;3.00;2.80;;;;;;;20.67;48.04;99403.79;436299;1253;137915;-68
2023/06/15 14:32:24;;;;;;;3.70;2.20;;;;;;;20.76;47.17;99401.39;436494;1251;139653;-69
2023/06/15 14:42:27;;;;;;;4.60;3.60;;;;;;;21.14;47.15;99395.19;436643;1251;138431;-68
2023/06/15 14:52:34;;;;;;;4.80;3.60;;;;;;;21.72;46.95;99390.85;436448;1251;139049;-69
2023/06/15 15:02:37;;;;;;;7.40;3.80;;;;;;;22.13;46.37;99396.95;436285;1254;139022;-69
2023/06/15 15:12:40;;;;;;;4.80;3.70;;;;;;;22.01;46.50;99394.15;436327;1251;139756;-68
2023/06/15 15:22:44;;;;;;;5.20;3.60;;;;;;;21.80;46.72;99392.55;436463;1251;141001;-69
2023/06/15 15:32:47;;;;;;;7.00;6.00;;;;;;;21.61;47.16;99385.14;436206;1251;139114;-71
2023/06/15 15:42:51;;;;;;;4.70;3.30;;;;;;;21.34;47.48;99383.25;436142;1254;138950;-69
2023/06/15 15:52:54;;;;;;;5.30;2.60;;;;;;;21.13;46.93;99371.89;436410;1253;138629;-69
2023/06/15 16:02:57;;;;;;;2.70;2.50;;;;;;;21.11;46.10;99370.11;436473;1250;138911;-70
2023/06/15 16:13:01;;;;;;;4.80;2.60;;;;;;;20.97;46.43;99371.00;436735;1254;139375;-69
2023/06/15 16:23:04;;;;;;;5.20;2.80;;;;;;;20.66;47.11;99377.11;436004;1251;138022;-70
2023/06/15 16:33:07;;;;;;;4.60;3.00;;;;;;;20.27;47.73;99377.64;436190;1251;139788;-69
2023/06/15 16:43:10;;;;;;;3.80;2.70;;;;;;;20.03;48.26;99385.23;436289;1254;138873;-68
2023/06/15 16:53:13;;;;;;;3.50;3.20;;;;;;;20.02;48.78;99382.06;436497;1251;138782;-70
2023/06/15 17:03:16;;;;;;;2.50;2.30;;;;;;;19.76;49.22;99386.59;436212;1251;139300;-69
2023/06/15 17:13:20;;;;;;;4.80;2.60;;;;;;;19.58;49.86;99388.12;436389;1254;139251;-68
2023/06/15 17:23:23;;;;;;;3.80;2.50;;;;;;;19.40;50.12;99391.24;436409;1251;139072;-69
2023/06/15 17:33:26;;;;;;;2.90;2.70;;;;;;;19.01;50.97;99404.80;436688;1254;138628;-70
2023/06/15 17:43:29;;;;;;;5.70;3.00;;;;;;;18.62;51.70;99410.33;437316;1251;138473;-69
2023/06/15 17:53:32;;;;;;;4.20;2.90;;;;;;;18.27;52.62;99418.74;436839;1254;139002;-69
2023/06/15 18:03:36;;;;;;;5.70;3.20;;;;;;;18.02;53.52;99421.52;437064;1251;139666;-69
2023/06/15 18:13:39;;;;;;;6.30;3.20;;;;;;;17.84;54.16;99416.25;436667;1251;139407;-69
2023/06/15 18:23:42;;;;;;;7.00;3.30;;;;;;;17.70;55.05;99418.19;436531;1251;138180;-70
2023/06/15 18:33:45;;;;;;;3.30;3.00;;;;;;;17.43;56.44;99415.48;436243;1251;139568;-68
2023/06/15 18:43:49;;;;;;;9.70;3.70;;;;;;;16.96;57.66;99420.50;436443;1251;138082;-70
2023/06/15 18:53:53;;;;;;;3.10;2.80;;;;;;;16.48;59.43;99423.36;436627;1251;138508;-68
2023/06/15 19:03:56;;;;;;;7.00;3.50;;;;;;;16.03;60.97;99435.23;436809;1251;139827;-70
2023/06/15 19:14:01;;;;;;;5.40;4.00;;;;;;;15.68;62.30;99446.29;436526;1251;139192;-70
2023/06/15 19:24:07;;;;;;;9.20;4.70;;;;;;;15.34;63.56;99453.98;436349;1254;139425;-69
2023/06/15 19:34:11;;;;;;;8.80;5.40;;;;;;;15.07;64.97;99453.24;437180;1250;174440;-69
2023/06/15 19:44:14;;;;;;;12.80;5.40;;;;;;;14.90;66.34;99457.88;436508;1250;139677;-69
2023/06/15 19:54:17;;;;;;;6.00;4.60;;;;;;;14.64;67.40;99458.04;436552;1254;139436;-70
2023/06/15 20:04:21;;;;;;;5.10;4.30;;;;;;;14.34;68.01;99462.42;439557;1253;138821;-69
2023/06/15 20:14:23;;;;;;;6.80;4.90;;;;;;;14.10;69.06;99454.81;436237;1254;140275;-68
2023/06/15 20:24:27;;;;;;;8.00;6.00;;;;;;;13.89;69.89;99447.36;436188;1253;139329;-70
2023/06/15 20:34:30;;;;;;;7.70;6.20;;;;;;;13.68;70.64;99442.83;436602;1251;139824;-70
2023/06/15 20:44:33;;;;;;;6.60;5.80;;;;;;;13.46;71.44;99438.57;436317;1253;139300;-68
2023/06/15 20:54:37;;;;;;;10.70;6.90;;;;;;;13.24;72.12;99430.79;436281;1251;139614;-69
2023/06/15 21:04:40;;;;;;;8.20;6.70;;;;;;;12.99;72.69;99422.15;436449;1252;140722;-69
2023/06/15 21:14:43;;;;;;;9.10;6.50;;;;;;;12.73;73.48;99427.90;436220;1250;139233;-68
2023/06/15 21:24:46;;;;;;;9.80;7.90;;;;;;;12.53;74.57;99423.09;436298;1250;139345;-69
2023/06/15 21:34:50;;;;;;;11.20;6.50;;;;;;;12.35;75.76;99418.46;436657;1251;139414;-69
2023/06/15 21:44:53;;;;;;;11.60;6.60;;;;;;;12.19;76.12;99422.79;436256;1251;139471;-70
2023/06/15 21:54:56;;;;;;;10.40;8.00;;;;;;;12.01;76.24;99429.17;436702;1251;139299;-70
2023/06/15 22:04:59;;;;;;;14.10;10.50;;;;;;;11.85;76.79;99428.52;436488;1254;139007;-70
2023/06/15 22:15:04;;;;;;;9.40;7.50;;;;;;;11.71;77.86;99428.27;436346;1250;139614;-69
2023/06/15 22:25:08;;;;;;;10.10;8.10;;;;;;;11.58;78.60;99416.40;436741;1250;139823;-70
2023/06/15 22:35:11;;;;;;;11.20;8.90;;;;;;;11.40;78.60;99415.21;436321;1251;139278;-69
2023/06/15 22:45:14;;;;;;;10.90;8.70;;;;;;;11.28;79.53;99412.87;436282;1251;140413;-70
2023/06/15 22:55:18;;;;;;;10.00;8.20;;;;;;;11.16;79.51;99412.15;435306;1251;139527;-68
2023/06/15 23:05:22;;;;;;;11.70;10.10;;;;;;;11.07;80.01;99412.77;436193;1251;139155;-68
2023/06/15 23:15:32;;;;;;;9.80;7.30;;;;;;;10.94;80.41;99402.40;436717;1251;139597;-68
2023/06/15 23:25:35;;;;;;;8.80;7.40;;;;;;;10.84;80.97;99393.46;436236;1251;139241;-68
2023/06/15 23:35:38;;;;;;;10.40;7.60;;;;;;;10.73;81.18;99393.34;436631;1254;139347;-68
2023/06/15 23:45:41;;;;;;;8.40;7.20;;;;;;;10.61;81.19;99392.20;436227;1250;139153;-68
2023/06/15 23:55:45;;;;;;;12.20;8.90;;;;;;;10.51;81.63;99392.86;436116;1254;138658;-68
